sensor_id;sensor_type;location;lat;lon;timestamp;P1;durP1;ratioP1;P2;durP2;ratioP2
14890;SDS011;7537;48.014;11.590;2023-04-24T00:01:41;1.79;;;0.76;;
14890;SDS011;7537;48.014;11.590;2023-04-24T00:07:09;1.01;;;1.10;;
14890;SDS011;7537;48.014;11.590;2023-04-24T00:12:36;0.74;;;0.62;;
14890;SDS011;7537;48.014;11.590;2023-04-24T00:18:07;0.86;;;0.93;;
14890;SDS011;7537;48.014;11.590;2023-04-24T00:23:35;0.49;;;0.52;;
14890;SDS011;7537;48.014;11.590;2023-04-24T00:29:04;0.67;;;0.76;;
14890;SDS011;7537;48.014;11.590;2023-04-24T00:34:31;1.28;;;0.74;;
14890;SDS011;7537;48.014;11.590;2023-04-24T00:39:59;1.56;;;0.77;;
14890;SDS011;7537;48.014;11.590;2023-04-24T00:45:26;1.42;;;0.56;;
14890;SDS011;7537;48.014;11.590;2023-04-24T00:50:54;0.77;;;0.63;;
14890;SDS011;7537;48.014;11.590;2023-04-24T00:56:21;0.76;;;0.54;;
14890;SDS011;7537;48.014;11.590;2023-04-24T01:01:50;0.50;;;0.54;;
14890;SDS011;7537;48.014;11.590;2023-04-24T01:07:19;0.37;;;0.41;;
14890;SDS011;7537;48.014;11.590;2023-04-24T01:12:46;0.61;;;0.46;;
14890;SDS011;7537;48.014;11.590;2023-04-24T01:18:17;0.26;;;0.29;;
14890;SDS011;7537;48.014;11.590;2023-04-24T01:23:45;0.35;;;0.28;;
14890;SDS011;7537;48.014;11.590;2023-04-24T01:29:12;0.52;;;0.58;;
14890;SDS011;7537;48.014;11.590;2023-04-24T01:34:41;0.22;;;0.26;;
14890;SDS011;7537;48.014;11.590;2023-04-24T01:40:09;0.26;;;0.29;;
14890;SDS011;7537;48.014;11.590;2023-04-24T01:45:37;0.27;;;0.29;;
14890;SDS011;7537;48.014;11.590;2023-04-24T01:51:04;0.29;;;0.34;;
14890;SDS011;7537;48.014;11.590;2023-04-24T01:56:31;0.68;;;0.43;;
14890;SDS011;7537;48.014;11.590;2023-04-24T02:02:00;0.85;;;0.58;;
14890;SDS011;7537;48.014;11.590;2023-04-24T02:07:31;0.69;;;0.48;;
14890;SDS011;7537;48.014;11.590;2023-04-24T02:12:59;0.17;;;0.18;;
14890;SDS011;7537;48.014;11.590;2023-04-24T02:18:29;0.83;;;0.26;;
14890;SDS011;7537;48.014;11.590;2023-04-24T02:23:57;0.33;;;0.30;;
14890;SDS011;7537;48.014;11.590;2023-04-24T02:29:24;0.28;;;0.31;;
14890;SDS011;7537;48.014;11.590;2023-04-24T02:34:53;0.44;;;0.51;;
14890;SDS011;7537;48.014;11.590;2023-04-24T02:40:22;0.37;;;0.31;;
14890;SDS011;7537;48.014;11.590;2023-04-24T02:45:49;1.35;;;0.43;;
14890;SDS011;7537;48.014;11.590;2023-04-24T02:51:17;0.78;;;0.25;;
14890;SDS011;7537;48.014;11.590;2023-04-24T02:56:44;1.83;;;0.44;;
14890;SDS011;7537;48.014;11.590;2023-04-24T03:02:14;0.20;;;0.22;;
14890;SDS011;7537;48.014;11.590;2023-04-24T03:07:45;0.23;;;0.24;;
14890;SDS011;7537;48.014;11.590;2023-04-24T03:13:14;0.46;;;0.51;;
14890;SDS011;7537;48.014;11.590;2023-04-24T03:18:46;0.34;;;0.34;;
14890;SDS011;7537;48.014;11.590;2023-04-24T03:24:14;1.00;;;0.41;;
14890;SDS011;7537;48.014;11.590;2023-04-24T03:29:41;0.42;;;0.43;;
14890;SDS011;7537;48.014;11.590;2023-04-24T03:35:09;0.87;;;0.55;;
14890;SDS011;7537;48.014;11.590;2023-04-24T03:40:36;0.65;;;0.47;;
14890;SDS011;7537;48.014;11.590;2023-04-24T03:46:06;0.30;;;0.35;;
14890;SDS011;7537;48.014;11.590;2023-04-24T03:51:33;0.47;;;0.29;;
14890;SDS011;7537;48.014;11.590;2023-04-24T03:57:02;0.35;;;0.39;;
14890;SDS011;7537;48.014;11.590;2023-04-24T04:02:30;0.55;;;0.58;;
14890;SDS011;7537;48.014;11.590;2023-04-24T04:07:57;0.58;;;0.41;;
14890;SDS011;7537;48.014;11.590;2023-04-24T04:13:25;0.56;;;0.61;;
14890;SDS011;7537;48.014;11.590;2023-04-24T04:18:57;0.64;;;0.71;;
14890;SDS011;7537;48.014;11.590;2023-04-24T04:24:24;0.49;;;0.47;;
14890;SDS011;7537;48.014;11.590;2023-04-24T04:29:52;0.34;;;0.31;;
14890;SDS011;7537;48.014;11.590;2023-04-24T04:35:19;0.50;;;0.29;;
14890;SDS011;7537;48.014;11.590;2023-04-24T04:40:51;0.33;;;0.34;;
14890;SDS011;7537;48.014;11.590;2023-04-24T04:46:18;0.27;;;0.28;;
14890;SDS011;7537;48.014;11.590;2023-04-24T04:51:47;0.57;;;0.43;;
14890;SDS011;7537;48.014;11.590;2023-04-24T04:57:14;0.36;;;0.37;;
14890;SDS011;7537;48.014;11.590;2023-04-24T05:02:42;0.37;;;0.34;;
14890;SDS011;7537;48.014;11.590;2023-04-24T05:08:09;2.33;;;1.04;;
14890;SDS011;7537;48.014;11.590;2023-04-24T05:13:37;0.79;;;0.33;;
14890;SDS011;7537;48.014;11.590;2023-04-24T05:19:12;3.25;;;0.52;;
14890;SDS011;7537;48.014;11.590;2023-04-24T05:24:41;0.77;;;0.40;;
14890;SDS011;7537;48.014;11.590;2023-04-24T05:30:09;2.42;;;1.79;;
14890;SDS011;7537;48.014;11.590;2023-04-24T05:35:36;0.34;;;0.42;;
14890;SDS011;7537;48.014;11.590;2023-04-24T05:41:04;0.54;;;0.42;;
14890;SDS011;7537;48.014;11.590;2023-04-24T05:46:31;0.23;;;0.23;;
14890;SDS011;7537;48.014;11.590;2023-04-24T05:51:59;0.70;;;0.39;;
14890;SDS011;7537;48.014;11.590;2023-04-24T05:57:28;0.21;;;0.22;;
14890;SDS011;7537;48.014;11.590;2023-04-24T06:02:55;0.11;;;0.13;;
14890;SDS011;7537;48.014;11.590;2023-04-24T06:08:23;0.35;;;0.41;;
14890;SDS011;7537;48.014;11.590;2023-04-24T06:13:50;0.43;;;0.38;;
14890;SDS011;7537;48.014;11.590;2023-04-24T06:19:26;0.29;;;0.28;;
14890;SDS011;7537;48.014;11.590;2023-04-24T06:24:53;1.59;;;0.48;;
14890;SDS011;7537;48.014;11.590;2023-04-24T06:30:22;0.24;;;0.28;;
14890;SDS011;7537;48.014;11.590;2023-04-24T06:35:50;1.52;;;0.70;;
14890;SDS011;7537;48.014;11.590;2023-04-24T06:41:17;0.35;;;0.27;;
14890;SDS011;7537;48.014;11.590;2023-04-24T06:46:44;0.12;;;0.14;;
14890;SDS011;7537;48.014;11.590;2023-04-24T06:52:12;1.00;;;0.70;;
14890;SDS011;7537;48.014;11.590;2023-04-24T06:57:40;0.22;;;0.26;;
14890;SDS011;7537;48.014;11.590;2023-04-24T07:03:09;0.13;;;0.14;;
14890;SDS011;7537;48.014;11.590;2023-04-24T07:08:36;0.04;;;0.05;;
14890;SDS011;7537;48.014;11.590;2023-04-24T07:14:03;0.21;;;0.22;;
14890;SDS011;7537;48.014;11.590;2023-04-24T07:19:34;0.17;;;0.19;;
14890;SDS011;7537;48.014;11.590;2023-04-24T07:25:02;0.05;;;0.06;;
14890;SDS011;7537;48.014;11.590;2023-04-24T07:30:29;0.08;;;0.09;;
14890;SDS011;7537;48.014;11.590;2023-04-24T07:35:59;0.17;;;0.18;;
14890;SDS011;7537;48.014;11.590;2023-04-24T07:41:26;0.11;;;0.11;;
14890;SDS011;7537;48.014;11.590;2023-04-24T07:46:54;0.22;;;0.06;;
14890;SDS011;7537;48.014;11.590;2023-04-24T07:52:23;0.20;;;0.17;;
14890;SDS011;7537;48.014;11.590;2023-04-24T07:57:50;0.34;;;0.20;;
14890;SDS011;7537;48.014;11.590;2023-04-24T08:03:18;0.97;;;0.14;;
14890;SDS011;7537;48.014;11.590;2023-04-24T08:08:47;0.31;;;0.22;;
14890;SDS011;7537;48.014;11.590;2023-04-24T08:14:14;0.15;;;0.06;;
14890;SDS011;7537;48.014;11.590;2023-04-24T08:19:54;0.16;;;0.17;;
14890;SDS011;7537;48.014;11.590;2023-04-24T08:25:22;0.30;;;0.09;;
14890;SDS011;7537;48.014;11.590;2023-04-24T08:30:49;0.29;;;0.13;;
14890;SDS011;7537;48.014;11.590;2023-04-24T08:36:17;0.79;;;0.18;;
14890;SDS011;7537;48.014;11.590;2023-04-24T08:41:46;0.35;;;0.38;;
14890;SDS011;7537;48.014;11.590;2023-04-24T08:47:15;0.58;;;0.25;;
14890;SDS011;7537;48.014;11.590;2023-04-24T08:52:45;1.79;;;0.41;;
14890;SDS011;7537;48.014;11.590;2023-04-24T08:58:14;0.49;;;0.42;;
14890;SDS011;7537;48.014;11.590;2023-04-24T09:03:42;0.57;;;0.51;;
14890;SDS011;7537;48.014;11.590;2023-04-24T09:09:09;0.56;;;0.63;;
14890;SDS011;7537;48.014;11.590;2023-04-24T09:14:39;0.66;;;0.74;;
14890;SDS011;7537;48.014;11.590;2023-04-24T09:20:14;0.93;;;0.73;;
14890;SDS011;7537;48.014;11.590;2023-04-24T09:25:42;1.97;;;0.64;;
14890;SDS011;7537;48.014;11.590;2023-04-24T09:31:11;1.33;;;0.76;;
14890;SDS011;7537;48.014;11.590;2023-04-24T09:36:39;0.81;;;0.87;;
14890;SDS011;7537;48.014;11.590;2023-04-24T09:42:07;0.33;;;0.33;;
14890;SDS011;7537;48.014;11.590;2023-04-24T09:47:36;0.28;;;0.28;;
14890;SDS011;7537;48.014;11.590;2023-04-24T09:53:05;0.46;;;0.48;;
14890;SDS011;7537;48.014;11.590;2023-04-24T09:58:32;0.28;;;0.32;;
14890;SDS011;7537;48.014;11.590;2023-04-24T10:04:02;0.82;;;0.81;;
14890;SDS011;7537;48.014;11.590;2023-04-24T10:09:29;0.65;;;0.52;;
14890;SDS011;7537;48.014;11.590;2023-04-24T10:14:57;0.83;;;0.89;;
14890;SDS011;7537;48.014;11.590;2023-04-24T10:20:35;0.56;;;0.64;;
14890;SDS011;7537;48.014;11.590;2023-04-24T10:26:04;0.57;;;0.64;;
14890;SDS011;7537;48.014;11.590;2023-04-24T10:31:31;0.41;;;0.47;;
14890;SDS011;7537;48.014;11.590;2023-04-24T10:36:59;0.73;;;0.76;;
14890;SDS011;7537;48.014;11.590;2023-04-24T10:42:27;0.97;;;0.49;;
14890;SDS011;7537;48.014;11.590;2023-04-24T10:47:59;1.99;;;1.28;;
14890;SDS011;7537;48.014;11.590;2023-04-24T10:53:28;1.59;;;0.83;;
14890;SDS011;7537;48.014;11.590;2023-04-24T10:58:56;1.89;;;1.05;;
14890;SDS011;7537;48.014;11.590;2023-04-24T11:04:29;0.55;;;0.61;;
14890;SDS011;7537;48.014;11.590;2023-04-24T11:09:58;1.17;;;0.64;;
14890;SDS011;7537;48.014;11.590;2023-04-24T11:15:38;0.51;;;0.38;;
14890;SDS011;7537;48.014;11.590;2023-04-24T11:21:12;0.15;;;0.17;;
14890;SDS011;7537;48.014;11.590;2023-04-24T11:26:41;1.49;;;0.99;;
14890;SDS011;7537;48.014;11.590;2023-04-24T11:32:15;0.51;;;0.58;;
14890;SDS011;7537;48.014;11.590;2023-04-24T11:37:43;0.76;;;0.54;;
14890;SDS011;7537;48.014;11.590;2023-04-24T11:43:11;0.36;;;0.39;;
14890;SDS011;7537;48.014;11.590;2023-04-24T11:48:39;0.76;;;0.72;;
14890;SDS011;7537;48.014;11.590;2023-04-24T11:54:12;1.29;;;0.73;;
14890;SDS011;7537;48.014;11.590;2023-04-24T11:59:39;0.39;;;0.41;;
14890;SDS011;7537;48.014;11.590;2023-04-24T12:05:09;7.20;;;1.20;;
14890;SDS011;7537;48.014;11.590;2023-04-24T12:10:36;0.49;;;0.57;;
14890;SDS011;7537;48.014;11.590;2023-04-24T12:16:04;3.61;;;1.03;;
14890;SDS011;7537;48.014;11.590;2023-04-24T12:21:40;2.48;;;1.02;;
14890;SDS011;7537;48.014;11.590;2023-04-24T12:27:07;1.51;;;1.43;;
14890;SDS011;7537;48.014;11.590;2023-04-24T12:32:46;1.56;;;1.42;;
14890;SDS011;7537;48.014;11.590;2023-04-24T12:38:15;2.01;;;1.69;;
14890;SDS011;7537;48.014;11.590;2023-04-24T12:44:01;1.34;;;1.41;;
14890;SDS011;7537;48.014;11.590;2023-04-24T12:49:29;1.83;;;1.84;;
14890;SDS011;7537;48.014;11.590;2023-04-24T12:54:58;1.29;;;1.42;;
14890;SDS011;7537;48.014;11.590;2023-04-24T13:00:25;1.40;;;1.49;;
14890;SDS011;7537;48.014;11.590;2023-04-24T13:05:53;3.82;;;1.62;;
14890;SDS011;7537;48.014;11.590;2023-04-24T13:11:22;1.39;;;1.44;;
14890;SDS011;7537;48.014;11.590;2023-04-24T13:16:49;0.99;;;1.12;;
14890;SDS011;7537;48.014;11.590;2023-04-24T13:22:20;0.61;;;0.61;;
14890;SDS011;7537;48.014;11.590;2023-04-24T13:27:48;2.67;;;1.35;;
14890;SDS011;7537;48.014;11.590;2023-04-24T13:33:15;4.16;;;1.78;;
14890;SDS011;7537;48.014;11.590;2023-04-24T13:38:43;1.69;;;1.27;;
14890;SDS011;7537;48.014;11.590;2023-04-24T13:44:11;1.29;;;1.26;;
14890;SDS011;7537;48.014;11.590;2023-04-24T13:49:41;1.14;;;1.20;;
14890;SDS011;7537;48.014;11.590;2023-04-24T13:55:10;2.97;;;1.60;;
14890;SDS011;7537;48.014;11.590;2023-04-24T14:00:37;1.49;;;1.59;;
14890;SDS011;7537;48.014;11.590;2023-04-24T14:06:05;1.42;;;1.47;;
14890;SDS011;7537;48.014;11.590;2023-04-24T14:11:33;1.51;;;1.54;;
14890;SDS011;7537;48.014;11.590;2023-04-24T14:17:01;2.36;;;1.24;;
14890;SDS011;7537;48.014;11.590;2023-04-24T14:22:32;1.73;;;1.61;;
14890;SDS011;7537;48.014;11.590;2023-04-24T14:28:01;2.99;;;1.81;;
14890;SDS011;7537;48.014;11.590;2023-04-24T14:33:28;1.81;;;1.23;;
14890;SDS011;7537;48.014;11.590;2023-04-24T14:38:56;1.37;;;1.41;;
14890;SDS011;7537;48.014;11.590;2023-04-24T14:44:23;1.06;;;1.16;;
14890;SDS011;7537;48.014;11.590;2023-04-24T14:49:51;2.22;;;2.06;;
14890;SDS011;7537;48.014;11.590;2023-04-24T14:55:18;1.29;;;1.45;;
14890;SDS011;7537;48.014;11.590;2023-04-24T15:00:47;1.26;;;1.41;;
14890;SDS011;7537;48.014;11.590;2023-04-24T15:06:14;1.02;;;1.13;;
14890;SDS011;7537;48.014;11.590;2023-04-24T15:11:55;4.99;;;1.49;;
14890;SDS011;7537;48.014;11.590;2023-04-24T15:17:23;1.69;;;1.46;;
14890;SDS011;7537;48.014;11.590;2023-04-24T15:22:54;1.58;;;1.55;;
14890;SDS011;7537;48.014;11.590;2023-04-24T15:28:22;1.96;;;1.80;;
14890;SDS011;7537;48.014;11.590;2023-04-24T15:33:51;1.03;;;1.09;;
14890;SDS011;7537;48.014;11.590;2023-04-24T15:39:19;2.07;;;1.07;;
14890;SDS011;7537;48.014;11.590;2023-04-24T15:44:50;1.12;;;1.08;;
14890;SDS011;7537;48.014;11.590;2023-04-24T15:50:17;1.87;;;1.44;;
14890;SDS011;7537;48.014;11.590;2023-04-24T15:55:44;1.46;;;1.10;;
14890;SDS011;7537;48.014;11.590;2023-04-24T16:01:12;1.17;;;1.25;;
14890;SDS011;7537;48.014;11.590;2023-04-24T16:06:41;1.56;;;1.13;;
14890;SDS011;7537;48.014;11.590;2023-04-24T16:12:08;2.79;;;2.17;;
14890;SDS011;7537;48.014;11.590;2023-04-24T16:17:36;1.38;;;1.36;;
14890;SDS011;7537;48.014;11.590;2023-04-24T16:23:06;2.45;;;1.61;;
14890;SDS011;7537;48.014;11.590;2023-04-24T16:28:34;1.28;;;1.39;;
14890;SDS011;7537;48.014;11.590;2023-04-24T16:34:01;1.15;;;0.85;;
14890;SDS011;7537;48.014;11.590;2023-04-24T16:39:30;1.26;;;1.31;;
14890;SDS011;7537;48.014;11.590;2023-04-24T16:44:58;2.69;;;1.47;;
14890;SDS011;7537;48.014;11.590;2023-04-24T16:50:25;1.15;;;1.16;;
14890;SDS011;7537;48.014;11.590;2023-04-24T16:55:53;3.86;;;1.43;;
14890;SDS011;7537;48.014;11.590;2023-04-24T17:01:21;2.16;;;1.99;;
14890;SDS011;7537;48.014;11.590;2023-04-24T17:06:48;1.23;;;0.87;;
14890;SDS011;7537;48.014;11.590;2023-04-24T17:12:18;0.92;;;0.84;;
14890;SDS011;7537;48.014;11.590;2023-04-24T17:17:46;1.12;;;1.22;;
14890;SDS011;7537;48.014;11.590;2023-04-24T17:23:16;2.16;;;1.00;;
14890;SDS011;7537;48.014;11.590;2023-04-24T17:28:44;1.42;;;1.04;;
14890;SDS011;7537;48.014;11.590;2023-04-24T17:34:11;0.99;;;0.86;;
14890;SDS011;7537;48.014;11.590;2023-04-24T17:39:38;2.18;;;1.25;;
14890;SDS011;7537;48.014;11.590;2023-04-24T17:45:09;0.74;;;0.84;;
14890;SDS011;7537;48.014;11.590;2023-04-24T17:50:37;1.63;;;0.80;;
14890;SDS011;7537;48.014;11.590;2023-04-24T17:56:04;1.58;;;1.24;;
14890;SDS011;7537;48.014;11.590;2023-04-24T18:01:32;1.05;;;0.96;;
14890;SDS011;7537;48.014;11.590;2023-04-24T18:06:59;1.12;;;0.76;;
14890;SDS011;7537;48.014;11.590;2023-04-24T18:12:26;1.52;;;0.91;;
14890;SDS011;7537;48.014;11.590;2023-04-24T18:17:55;1.04;;;1.13;;
14890;SDS011;7537;48.014;11.590;2023-04-24T18:23:26;1.10;;;0.76;;
14890;SDS011;7537;48.014;11.590;2023-04-24T18:28:53;1.77;;;0.99;;
14890;SDS011;7537;48.014;11.590;2023-04-24T18:34:21;1.17;;;0.91;;
14890;SDS011;7537;48.014;11.590;2023-04-24T18:39:48;1.04;;;0.73;;
14890;SDS011;7537;48.014;11.590;2023-04-24T18:45:16;0.80;;;0.76;;
14890;SDS011;7537;48.014;11.590;2023-04-24T18:50:45;1.05;;;0.91;;
14890;SDS011;7537;48.014;11.590;2023-04-24T18:56:12;1.15;;;0.84;;
14890;SDS011;7537;48.014;11.590;2023-04-24T19:01:40;0.76;;;0.86;;
14890;SDS011;7537;48.014;11.590;2023-04-24T19:07:07;4.61;;;2.94;;
14890;SDS011;7537;48.014;11.590;2023-04-24T19:12:34;6.11;;;4.69;;
14890;SDS011;7537;48.014;11.590;2023-04-24T19:18:02;3.18;;;3.22;;
14890;SDS011;7537;48.014;11.590;2023-04-24T19:23:34;3.42;;;2.64;;
14890;SDS011;7537;48.014;11.590;2023-04-24T19:29:01;1.41;;;1.46;;
14890;SDS011;7537;48.014;11.590;2023-04-24T19:34:29;1.38;;;1.46;;
14890;SDS011;7537;48.014;11.590;2023-04-24T19:39:56;2.74;;;2.61;;
14890;SDS011;7537;48.014;11.590;2023-04-24T19:45:24;5.16;;;4.71;;
14890;SDS011;7537;48.014;11.590;2023-04-24T19:51:01;17.57;;;9.83;;
14890;SDS011;7537;48.014;11.590;2023-04-24T19:56:33;4.08;;;3.47;;
14890;SDS011;7537;48.014;11.590;2023-04-24T20:02:00;2.41;;;1.28;;
14890;SDS011;7537;48.014;11.590;2023-04-24T20:07:28;3.22;;;2.17;;
14890;SDS011;7537;48.014;11.590;2023-04-24T20:12:55;1.51;;;1.62;;
14890;SDS011;7537;48.014;11.590;2023-04-24T20:18:24;2.29;;;1.89;;
14890;SDS011;7537;48.014;11.590;2023-04-24T20:23:55;1.63;;;1.71;;
14890;SDS011;7537;48.014;11.590;2023-04-24T20:29:24;1.98;;;1.64;;
14890;SDS011;7537;48.014;11.590;2023-04-24T20:34:54;4.42;;;1.57;;
14890;SDS011;7537;48.014;11.590;2023-04-24T20:40:22;1.53;;;1.55;;
14890;SDS011;7537;48.014;11.590;2023-04-24T20:45:49;2.34;;;2.24;;
14890;SDS011;7537;48.014;11.590;2023-04-24T20:51:17;2.61;;;2.02;;
14890;SDS011;7537;48.014;11.590;2023-04-24T20:56:44;1.55;;;1.64;;
14890;SDS011;7537;48.014;11.590;2023-04-24T21:02:13;1.63;;;1.72;;
14890;SDS011;7537;48.014;11.590;2023-04-24T21:07:42;2.65;;;2.20;;
14890;SDS011;7537;48.014;11.590;2023-04-24T21:13:09;2.68;;;1.86;;
14890;SDS011;7537;48.014;11.590;2023-04-24T21:18:37;3.33;;;2.82;;
14890;SDS011;7537;48.014;11.590;2023-04-24T21:24:08;2.04;;;1.79;;
14890;SDS011;7537;48.014;11.590;2023-04-24T21:29:35;2.18;;;1.91;;
14890;SDS011;7537;48.014;11.590;2023-04-24T21:35:04;1.84;;;1.92;;
14890;SDS011;7537;48.014;11.590;2023-04-24T21:40:32;1.61;;;1.70;;
14890;SDS011;7537;48.014;11.590;2023-04-24T21:45:59;1.97;;;1.61;;
14890;SDS011;7537;48.014;11.590;2023-04-24T21:51:27;1.49;;;1.56;;
14890;SDS011;7537;48.014;11.590;2023-04-24T21:56:54;2.15;;;2.24;;
14890;SDS011;7537;48.014;11.590;2023-04-24T22:02:21;1.73;;;1.86;;
14890;SDS011;7537;48.014;11.590;2023-04-24T22:07:50;1.34;;;1.44;;
14890;SDS011;7537;48.014;11.590;2023-04-24T22:13:17;1.69;;;1.79;;
14890;SDS011;7537;48.014;11.590;2023-04-24T22:18:45;2.26;;;2.03;;
14890;SDS011;7537;48.014;11.590;2023-04-24T22:24:16;1.43;;;1.54;;
14890;SDS011;7537;48.014;11.590;2023-04-24T22:29:43;2.94;;;1.96;;
14890;SDS011;7537;48.014;11.590;2023-04-24T22:35:11;2.87;;;2.34;;
14890;SDS011;7537;48.014;11.590;2023-04-24T22:40:43;2.47;;;2.56;;
14890;SDS011;7537;48.014;11.590;2023-04-24T22:46:11;4.53;;;2.11;;
14890;SDS011;7537;48.014;11.590;2023-04-24T22:51:38;1.64;;;1.68;;
14890;SDS011;7537;48.014;11.590;2023-04-24T22:57:06;1.59;;;1.56;;
14890;SDS011;7537;48.014;11.590;2023-04-24T23:02:33;1.86;;;1.88;;
14890;SDS011;7537;48.014;11.590;2023-04-24T23:08:00;1.79;;;1.81;;
14890;SDS011;7537;48.014;11.590;2023-04-24T23:13:29;1.58;;;1.60;;
14890;SDS011;7537;48.014;11.590;2023-04-24T23:18:56;1.41;;;1.48;;
14890;SDS011;7537;48.014;11.590;2023-04-24T23:24:27;1.39;;;1.47;;
14890;SDS011;7537;48.014;11.590;2023-04-24T23:29:54;1.74;;;1.79;;
14890;SDS011;7537;48.014;11.590;2023-04-24T23:35:22;1.99;;;2.09;;
14890;SDS011;7537;48.014;11.590;2023-04-24T23:40:49;1.78;;;1.89;;
14890;SDS011;7537;48.014;11.590;2023-04-24T23:46:18;2.21;;;1.60;;
14890;SDS011;7537;48.014;11.590;2023-04-24T23:51:45;1.88;;;1.77;;
14890;SDS011;7537;48.014;11.590;2023-04-24T23:57:12;1.83;;;1.94;;
